Time;durP1;ratioP1;P1;durP2;ratioP2;P2;SDS_P1;SDS_P2;PMS_P1;PMS_P2;Temp;Humidity;BMP_temperature;BMP_pressure;BME280_temperature;BME280_humidity;BME280_pressure;Samples;Min_cycle;Max_cycle;Signal;HPM_P1;HPM_P2
2022/05/31 00:01:31;;;;;;;6.13;4.00;;;;;;;8.65;77.97;101278.75;4993037;28;20428;-71
2022/05/31 00:03:56;;;;;;;15.15;3.75;;;;;;;8.62;77.49;101287.06;5003617;28;20034;-70
2022/05/31 00:06:21;;;;;;;8.27;5.38;;;;;;;8.61;77.52;101279.91;5004357;28;20048;-70
2022/05/31 00:08:47;;;;;;;8.88;5.30;;;;;;;8.58;77.42;101280.06;4984514;28;20442;-71
2022/05/31 00:11:13;;;;;;;7.43;4.85;;;;;;;8.57;77.24;101281.03;5002763;28;20108;-70
2022/05/31 00:13:39;;;;;;;8.18;5.07;;;;;;;8.55;77.09;101278.41;4983717;28;20129;-71
2022/05/31 00:16:05;;;;;;;10.48;5.55;;;;;;;8.52;76.95;101273.16;4989508;28;20196;-71
2022/05/31 00:18:30;;;;;;;8.98;5.07;;;;;;;8.50;77.00;101275.09;5004117;28;20542;-71
2022/05/31 00:20:55;;;;;;;11.82;5.60;;;;;;;8.44;77.14;101275.44;5006175;28;20088;-71
2022/05/31 00:23:21;;;;;;;7.32;5.85;;;;;;;8.38;76.73;101275.78;4987151;28;20048;-71
2022/05/31 00:25:47;;;;;;;8.93;5.55;;;;;;;8.37;77.14;101274.03;5006063;28;20042;-71
2022/05/31 00:28:13;;;;;;;6.53;5.15;;;;;;;8.36;77.16;101267.75;4988402;28;20042;-71
2022/05/31 00:30:39;;;;;;;7.68;5.40;;;;;;;8.34;77.10;101275.03;4987142;28;20557;-71
2022/05/31 00:33:06;;;;;;;10.15;5.35;;;;;;;8.35;78.13;101273.22;5006143;28;20048;-69
2022/05/31 00:35:36;;;;;;;8.43;5.43;;;;;;;8.31;78.18;101267.09;4989068;28;20041;-71
2022/05/31 00:38:02;;;;;;;6.68;5.47;;;;;;;8.28;78.17;101275.38;5002223;28;20373;-71
2022/05/31 00:40:30;;;;;;;11.63;5.72;;;;;;;8.28;78.15;101274.50;4990669;28;20041;-70
2022/05/31 00:42:59;;;;;;;10.23;5.47;;;;;;;8.26;77.80;101279.16;4991638;28;20025;-70
2022/05/31 00:45:46;;;;;;;7.00;5.32;;;;;;;8.26;77.57;101276.44;4993708;28;20076;-71
2022/05/31 00:48:17;;;;;;;7.60;5.07;;;;;;;8.25;77.84;101274.69;5009407;28;20354;-71
2022/05/31 00:50:49;;;;;;;6.18;5.47;;;;;;;8.23;78.26;101272.06;5009933;28;20033;-71
2022/05/31 00:53:21;;;;;;;8.52;4.75;;;;;;;8.26;78.35;101279.16;5008485;28;20056;-70
2022/05/31 00:56:00;;;;;;;6.65;4.75;;;;;;;8.26;77.90;101281.88;5004406;28;20038;-70
2022/05/31 00:58:25;;;;;;;8.80;5.60;;;;;;;8.26;78.02;101281.88;5006765;28;20571;-70
2022/05/31 01:00:51;;;;;;;8.80;5.25;;;;;;;8.28;78.26;101280.81;4999120;28;20053;-71
2022/05/31 01:03:18;;;;;;;6.28;5.35;;;;;;;8.26;78.43;101282.75;5008480;28;20379;-71
2022/05/31 01:05:44;;;;;;;9.75;6.68;;;;;;;8.24;78.78;101275.66;4992263;28;20044;-71
2022/05/31 01:08:10;;;;;;;9.77;5.63;;;;;;;8.24;78.33;101272.94;4999365;28;20030;-71
2022/05/31 01:10:52;;;;;;;11.13;5.65;;;;;;;8.24;77.71;101279.22;4991417;28;20040;-71
2022/05/31 01:13:44;;;;;;;7.32;4.65;;;;;;;8.24;77.85;101268.38;4974307;28;20060;-71
2022/05/31 01:16:27;;;;;;;7.50;5.40;;;;;;;8.20;78.35;101266.81;4987575;28;20095;-71
2022/05/31 01:19:55;;;;;;;10.23;6.10;;;;;;;8.16;78.63;101265.25;4996520;28;20091;-71
2022/05/31 01:21:57;;;;;;;10.32;5.93;;;;;;;8.12;79.00;101264.53;5008643;28;20133;-70
2022/05/31 01:24:32;;;;;;;7.90;5.85;;;;;;;8.07;78.91;101258.50;4991238;28;20025;-70
2022/05/31 01:27:06;;;;;;;9.88;6.72;;;;;;;8.06;78.79;101258.56;4996712;28;20478;-71
2022/05/31 01:29:36;;;;;;;10.50;6.15;;;;;;;8.04;78.56;101260.50;4997515;28;20401;-71
2022/05/31 01:32:05;;;;;;;11.93;6.18;;;;;;;8.00;78.62;101259.78;4969858;28;20038;-70
2022/05/31 01:34:52;;;;;;;13.45;6.35;;;;;;;8.00;78.54;101259.78;4987370;28;20481;-71
2022/05/31 01:37:25;;;;;;;7.28;5.97;;;;;;;7.95;78.68;101256.47;4987490;28;20065;-71
2022/05/31 01:39:53;;;;;;;;;;;;;;;7.98;76.50;101250.88;4991006;28;20089;-71
2022/05/31 01:42:32;;;;;;;9.65;5.50;;;;;;;7.88;78.54;101255.94;4970709;28;19957;-70
2022/05/31 01:45:05;;;;;;;9.05;5.75;;;;;;;7.83;78.44;101259.81;4977420;28;20057;-71
2022/05/31 01:47:30;;;;;;;8.90;6.40;;;;;;;7.79;78.93;101253.72;4989625;28;20068;-69
2022/05/31 01:49:57;;;;;;;11.18;6.25;;;;;;;7.75;78.50;101253.97;4989915;28;20057;-70
2022/05/31 01:52:23;;;;;;;9.60;6.38;;;;;;;7.73;79.01;101254.03;4990667;28;20111;-70
2022/05/31 01:54:51;;;;;;;10.65;6.22;;;;;;;7.74;78.19;101260.31;4989385;28;20034;-71
2022/05/31 01:57:18;;;;;;;8.85;6.05;;;;;;;7.72;79.06;101257.72;4990219;28;20176;-69
2022/05/31 01:59:55;;;;;;;7.47;5.70;;;;;;;7.68;79.22;101248.00;4983394;28;20038;-71
2022/05/31 02:02:21;;;;;;;7.13;6.07;;;;;;;7.65;79.54;101256.31;4982423;28;20057;-71
2022/05/31 02:04:47;;;;;;;8.25;5.53;;;;;;;7.61;79.82;101254.72;4973474;28;20140;-71
2022/05/31 02:07:19;;;;;;;6.38;5.47;;;;;;;7.58;79.49;101252.16;4986771;28;20037;-71
2022/05/31 02:09:48;;;;;;;7.32;5.07;;;;;;;7.55;79.63;101246.91;4987683;28;20037;-70
2022/05/31 02:12:25;;;;;;;8.23;5.78;;;;;;;7.51;80.58;101253.47;4989509;28;20034;-70
2022/05/31 02:15:10;;;;;;;9.40;4.65;;;;;;;7.48;79.49;101251.78;4985828;28;20144;-70
2022/05/31 02:17:40;;;;;;;7.95;5.43;;;;;;;7.48;79.73;101250.91;4990265;28;20167;-70
2022/05/31 02:20:39;;;;;;;8.50;5.32;;;;;;;7.47;80.01;101247.31;4963997;28;20446;-70
2022/05/31 02:23:04;;;;;;;11.95;6.15;;;;;;;7.45;80.47;101249.22;4970028;28;20108;-70
2022/05/31 02:25:30;;;;;;;9.18;6.22;;;;;;;7.47;80.77;101247.31;4989882;28;20030;-71
2022/05/31 02:27:56;;;;;;;7.03;5.53;;;;;;;7.49;81.36;101244.53;4988247;28;20053;-70
2022/05/31 02:30:21;;;;;;;8.10;6.15;;;;;;;7.51;80.81;101246.22;4993968;28;20052;-70
2022/05/31 02:32:47;;;;;;;8.88;6.05;;;;;;;7.55;80.46;101241.47;4973695;28;20080;-71
2022/05/31 02:35:13;;;;;;;8.43;5.88;;;;;;;7.57;80.83;101243.16;5007285;28;20030;-70
2022/05/31 02:37:39;;;;;;;10.82;6.78;;;;;;;7.59;80.92;101243.06;4989638;28;20045;-70
2022/05/31 02:40:06;;;;;;;8.70;6.75;;;;;;;7.61;80.87;101238.47;4969564;28;20492;-71
2022/05/31 02:42:32;;;;;;;10.95;7.38;;;;;;;7.62;81.27;101230.25;4989707;28;20087;-71
2022/05/31 02:44:58;;;;;;;12.88;7.15;;;;;;;7.61;81.39;101231.22;4968726;28;20034;-70
2022/05/31 02:47:23;;;;;;;11.40;7.22;;;;;;;7.61;82.26;101233.06;4989183;28;20041;-70
2022/05/31 02:49:49;;;;;;;8.93;6.70;;;;;;;7.64;81.34;101243.69;5002685;28;20041;-70
2022/05/31 02:52:15;;;;;;;10.10;7.50;;;;;;;7.68;81.55;101239.88;4966829;28;20109;-70
2022/05/31 02:54:43;;;;;;;8.75;6.75;;;;;;;7.72;81.52;101230.63;4972520;28;20251;-71
2022/05/31 02:57:20;;;;;;;9.60;6.88;;;;;;;7.75;81.08;101229.59;5007272;28;20125;-70
2022/05/31 02:59:55;;;;;;;9.32;7.72;;;;;;;7.75;80.97;101233.19;4981579;28;20347;-70
2022/05/31 03:02:39;;;;;;;10.52;7.13;;;;;;;7.80;80.59;101239.22;5001717;28;20048;-70
2022/05/31 03:05:23;;;;;;;10.00;6.50;;;;;;;7.84;80.91;101238.09;4997799;28;20098;-70
2022/05/31 03:08:05;;;;;;;8.90;6.60;;;;;;;7.85;80.90;101234.41;4986219;28;20029;-70
2022/05/31 03:10:44;;;;;;;9.20;6.07;;;;;;;7.87;81.35;101226.19;4989270;28;20080;-70
2022/05/31 03:13:13;;;;;;;8.93;6.50;;;;;;;7.93;81.48;101231.28;5006194;28;20042;-70
2022/05/31 03:15:39;;;;;;;8.15;6.72;;;;;;;7.92;80.93;101230.41;4995980;28;20481;-70
2022/05/31 03:18:14;;;;;;;10.98;6.70;;;;;;;7.95;82.08;101226.66;5006815;28;20036;-69
2022/05/31 03:20:48;;;;;;;10.45;7.03;;;;;;;7.96;81.51;101217.56;4995618;28;20041;-70
2022/05/31 03:23:29;;;;;;;11.80;7.38;;;;;;;7.97;81.27;101218.44;4989640;28;20042;-70
2022/05/31 03:25:57;;;;;;;10.70;6.72;;;;;;;7.92;81.96;101219.56;5006742;28;20066;-70
2022/05/31 03:28:23;;;;;;;9.93;6.97;;;;;;;7.95;81.63;101215.81;4999879;28;20038;-69
2022/05/31 03:30:48;;;;;;;13.68;7.68;;;;;;;7.98;82.42;101214.78;4985483;28;20049;-70
2022/05/31 03:33:15;;;;;;;10.13;6.88;;;;;;;8.02;82.49;101222.66;5006500;28;20473;-70
2022/05/31 03:35:41;;;;;;;17.17;7.68;;;;;;;8.02;82.79;101219.94;5007477;28;20044;-71
2022/05/31 03:38:23;;;;;;;12.68;6.85;;;;;;;8.02;83.42;101219.06;4984988;28;20031;-70
2022/05/31 03:41:01;;;;;;;11.82;7.40;;;;;;;8.03;82.10;101215.41;5006585;28;20048;-71
2022/05/31 03:43:53;;;;;;;14.95;7.28;;;;;;;8.07;82.77;101215.16;4987177;28;20057;-71
2022/05/31 03:46:22;;;;;;;12.10;7.80;;;;;;;8.07;82.15;101219.69;4995986;28;20501;-70
2022/05/31 03:49:05;;;;;;;11.48;7.25;;;;;;;8.09;82.55;101215.06;5005966;28;20570;-71
2022/05/31 03:51:41;;;;;;;8.43;7.03;;;;;;;8.10;83.62;101211.38;4989288;28;20531;-70
2022/05/31 03:54:18;;;;;;;16.70;7.05;;;;;;;8.13;82.68;101213.91;4984203;28;20501;-70
2022/05/31 03:57:20;;;;;;;10.93;7.97;;;;;;;8.19;82.24;101218.97;5003314;28;20072;-71
2022/05/31 04:00:12;;;;;;;;;;;;;;;8.28;79.99;101217.59;4981516;28;20072;-71
2022/05/31 04:02:43;;;;;;;9.07;6.15;;;;;;;8.27;81.55;101223.97;5001265;28;20040;-71
2022/05/31 04:05:09;;;;;;;13.18;7.07;;;;;;;8.28;82.33;101218.47;4987098;28;20466;-69
2022/05/31 04:07:35;;;;;;;8.80;6.95;;;;;;;8.28;82.00;101215.75;4985279;28;20041;-70
2022/05/31 04:10:03;;;;;;;12.25;6.90;;;;;;;8.32;82.43;101216.47;5004315;28;20054;-71
2022/05/31 04:12:30;;;;;;;13.25;8.20;;;;;;;8.32;81.21;101216.47;4991241;28;20025;-71
2022/05/31 04:15:14;;;;;;;10.18;7.20;;;;;;;8.32;80.89;101213.75;4993853;28;20076;-71
2022/05/31 04:17:40;;;;;;;11.38;7.30;;;;;;;8.36;81.27;101218.03;4991218;28;20038;-70
2022/05/31 04:20:07;;;;;;;13.63;7.47;;;;;;;8.42;81.53;101217.72;4990216;28;20170;-70
2022/05/31 04:22:33;;;;;;;14.60;7.82;;;;;;;8.48;81.98;101211.06;5002285;28;20406;-70
2022/05/31 04:25:18;;;;;;;9.10;7.47;;;;;;;8.52;81.44;101210.78;5007253;28;20041;-71
2022/05/31 04:28:15;;;;;;;11.80;7.75;;;;;;;8.60;80.89;101215.78;5008022;28;20390;-71
2022/05/31 04:31:13;;;;;;;10.15;8.07;;;;;;;8.67;81.10;101215.34;4954487;28;20069;-71
2022/05/31 04:34:11;;;;;;;9.73;6.93;;;;;;;8.72;81.41;101220.50;4995517;28;20091;-71
2022/05/31 04:36:36;;;;;;;9.27;7.25;;;;;;;8.78;81.35;101209.28;5005931;28;20133;-70
2022/05/31 04:39:03;;;;;;;10.38;7.40;;;;;;;8.84;81.36;101213.44;4990563;28;20109;-71
2022/05/31 04:41:32;;;;;;;9.82;6.50;;;;;;;8.90;81.82;101213.06;4990654;28;20485;-71
2022/05/31 04:44:07;;;;;;;12.27;7.37;;;;;;;8.95;81.94;101216.38;4985399;28;20037;-70
2022/05/31 04:46:36;;;;;;;15.90;7.90;;;;;;;9.00;81.99;101211.59;4988619;28;20041;-70
2022/05/31 04:49:24;;;;;;;10.27;7.97;;;;;;;9.05;81.91;101209.47;5006011;28;20048;-70
2022/05/31 04:51:50;;;;;;;12.05;7.47;;;;;;;9.07;81.54;101207.53;4990546;28;20378;-70
2022/05/31 04:54:20;;;;;;;11.15;8.10;;;;;;;9.11;81.95;101209.09;4988050;28;20031;-70
2022/05/31 04:57:15;;;;;;;13.48;8.07;;;;;;;9.12;81.35;101199.97;4991208;28;20049;-70
2022/05/31 04:59:40;;;;;;;19.13;7.82;;;;;;;9.19;81.96;101209.50;4948832;28;1037991;-69
2022/05/31 05:02:06;;;;;;;12.90;7.47;;;;;;;9.26;81.35;101207.28;4981425;28;20045;-71
2022/05/31 05:04:45;;;;;;;11.23;8.00;;;;;;;9.31;80.86;101199.72;4990444;28;20505;-69
2022/05/31 05:07:21;;;;;;;14.40;7.97;;;;;;;9.39;81.08;101207.41;4968122;28;20034;-71
2022/05/31 05:09:46;;;;;;;11.40;9.30;;;;;;;9.47;81.35;101205.09;4991240;28;20494;-70
2022/05/31 05:12:41;;;;;;;12.43;8.50;;;;;;;9.59;80.58;101200.72;4938543;28;20415;-71
2022/05/31 05:15:29;;;;;;;15.27;8.93;;;;;;;9.67;78.36;101198.41;4995616;28;20176;-71
2022/05/31 05:17:55;;;;;;;14.27;8.75;;;;;;;9.72;78.76;101188.13;4991142;28;20069;-71
2022/05/31 05:20:22;;;;;;;11.82;9.80;;;;;;;9.85;78.73;101199.97;4990444;28;20025;-70
2022/05/31 05:22:49;;;;;;;12.10;8.85;;;;;;;9.95;80.37;101200.25;4990439;28;20077;-70
2022/05/31 05:25:15;;;;;;;12.45;9.40;;;;;;;10.00;78.32;101199.94;4991459;28;20032;-70
2022/05/31 05:27:52;;;;;;;12.32;8.68;;;;;;;10.03;77.39;101197.03;4991291;28;20050;-69
2022/05/31 05:30:40;;;;;;;19.92;9.88;;;;;;;10.14;78.88;101194.50;4978677;28;20042;-70
2022/05/31 05:33:27;;;;;;;14.23;9.32;;;;;;;10.23;77.90;101202.91;5007729;28;20120;-70
2022/05/31 05:36:19;;;;;;;;;;;;;;;10.36;77.26;101194.00;4991333;28;20501;-71
2022/05/31 05:38:46;;;;;;;11.60;8.82;;;;;;;10.45;78.68;101207.00;4987128;28;19914;-69
2022/05/31 05:41:43;;;;;;;15.52;10.35;;;;;;;10.51;78.69;101198.41;4996355;28;20100;-70
2022/05/31 05:44:31;;;;;;;16.25;10.40;;;;;;;10.58;78.63;101210.63;4998110;28;20052;-70
2022/05/31 05:46:59;;;;;;;16.35;9.40;;;;;;;10.62;77.60;101208.56;4985693;28;20712;-71
2022/05/31 05:49:25;;;;;;;15.82;9.10;;;;;;;10.69;77.59;101202.63;4989918;28;20018;-70
2022/05/31 05:51:50;;;;;;;13.05;9.27;;;;;;;10.78;76.59;101203.84;4988674;28;20358;-70
2022/05/31 05:54:35;;;;;;;13.65;9.00;;;;;;;10.88;77.19;101204.09;5007755;28;20049;-70
2022/05/31 05:57:32;;;;;;;14.55;8.90;;;;;;;10.94;76.15;101196.38;5007788;28;20065;-70
2022/05/31 06:00:17;;;;;;;13.68;9.20;;;;;;;11.04;75.57;101201.19;4997179;28;20134;-70
2022/05/31 06:03:25;;;;;;;11.25;9.23;;;;;;;11.12;75.49;101198.81;5007988;28;20120;-69
2022/05/31 06:06:00;;;;;;;13.73;8.95;;;;;;;11.19;74.84;101201.03;4989994;28;20360;-70
2022/05/31 06:08:28;;;;;;;16.20;9.10;;;;;;;11.29;75.22;101203.09;4970088;28;20169;-69
2022/05/31 06:11:10;;;;;;;16.70;9.20;;;;;;;11.35;75.19;101206.25;4982507;28;20038;-70
2022/05/31 06:13:40;;;;;;;12.90;9.73;;;;;;;11.40;75.24;101203.22;4987084;28;20418;-69
2022/05/31 06:16:08;;;;;;;12.15;9.00;;;;;;;11.44;75.21;101196.56;4983489;28;20046;-70
2022/05/31 06:18:46;;;;;;;13.95;9.70;;;;;;;11.48;74.73;101193.53;4989309;28;20046;-71
2022/05/31 06:21:13;;;;;;;16.45;9.45;;;;;;;11.52;74.78;101196.91;4986353;28;20034;-70
2022/05/31 06:23:42;;;;;;;13.45;9.18;;;;;;;11.59;73.52;101192.75;4973962;28;20030;-70
2022/05/31 06:26:12;;;;;;;15.15;9.88;;;;;;;11.67;74.21;101187.63;4998538;28;20072;-70
2022/05/31 06:28:40;;;;;;;13.75;9.63;;;;;;;11.77;73.37;101196.03;5004989;28;20022;-70
2022/05/31 06:31:06;;;;;;;15.55;10.20;;;;;;;11.78;74.65;101191.44;4999917;28;20168;-70
2022/05/31 06:33:31;;;;;;;16.75;9.45;;;;;;;11.87;73.33;101188.09;4986806;28;20066;-69
2022/05/31 06:35:59;;;;;;;15.95;10.98;;;;;;;12.02;74.42;101197.88;4988166;28;20034;-71
2022/05/31 06:38:24;;;;;;;18.88;10.65;;;;;;;12.14;74.35;101193.38;4988592;28;20038;-71
2022/05/31 06:40:53;;;;;;;20.60;10.25;;;;;;;12.23;71.53;101198.16;4987916;28;20033;-70
2022/05/31 06:43:38;;;;;;;15.93;11.23;;;;;;;12.34;71.88;101200.97;5004985;28;20560;-70
2022/05/31 06:46:18;;;;;;;15.70;10.57;;;;;;;12.42;70.90;101200.41;4999066;28;20045;-70
2022/05/31 06:49:02;;;;;;;16.02;10.63;;;;;;;12.50;71.49;101206.16;4989755;28;20160;-70
2022/05/31 06:58:12;;;;;;;14.45;10.20;;;;;;;12.50;72.09;101204.31;4988605;28;20054;-70
2022/05/31 07:00:43;;;;;;;18.48;10.88;;;;;;;12.52;72.21;101199.59;4982909;28;20034;-71
2022/05/31 07:03:08;;;;;;;14.02;11.45;;;;;;;12.46;71.46;101199.19;4987138;28;20459;-70
2022/05/31 07:05:38;;;;;;;17.33;11.82;;;;;;;12.42;71.33;101204.00;4989325;28;20371;-71
2022/05/31 07:08:05;;;;;;;18.88;11.10;;;;;;;12.49;70.66;101202.53;4972065;28;20037;-71
2022/05/31 07:10:49;;;;;;;17.00;10.43;;;;;;;12.54;70.53;101190.41;4992255;28;20072;-71
2022/05/31 07:13:14;;;;;;;21.23;10.52;;;;;;;12.61;70.66;101195.31;5004693;28;20156;-71
2022/05/31 07:16:02;;;;;;;15.57;9.80;;;;;;;12.84;71.70;101198.16;4997694;28;20056;-70
2022/05/31 07:19:03;;;;;;;13.90;10.10;;;;;;;13.27;70.29;101193.88;4923703;29;20074;-71
2022/05/31 07:21:35;;;;;;;12.75;7.95;;;;;;;13.53;65.65;101182.75;4963038;28;20120;-71
2022/05/31 07:24:00;;;;;;;13.82;8.00;;;;;;;13.83;67.84;101181.28;5004494;28;20120;-71
2022/05/31 07:26:29;;;;;;;11.48;7.30;;;;;;;14.02;66.22;101192.47;4983992;28;20478;-68
2022/05/31 07:28:54;;;;;;;11.88;6.88;;;;;;;14.17;64.87;101191.19;4984755;28;20033;-70
2022/05/31 07:31:20;;;;;;;12.27;7.10;;;;;;;14.27;63.85;101183.13;4971045;28;20045;-71
2022/05/31 07:34:16;;;;;;;11.10;6.13;;;;;;;14.33;63.14;101187.22;4992088;28;20125;-71
2022/05/31 07:36:43;;;;;;;7.93;6.00;;;;;;;14.40;63.98;101186.56;4987968;28;20037;-70
2022/05/31 07:39:16;;;;;;;11.40;6.60;;;;;;;14.45;64.19;101187.03;4986183;28;20030;-70
2022/05/31 07:41:45;;;;;;;11.80;6.50;;;;;;;14.47;63.10;101187.81;4985424;28;20153;-71
2022/05/31 07:44:11;;;;;;;12.05;6.57;;;;;;;14.50;62.21;101193.06;4982186;28;20069;-70
2022/05/31 07:46:39;;;;;;;14.27;6.35;;;;;;;14.57;62.23;101187.06;4976984;28;20065;-69
2022/05/31 07:49:04;;;;;;;11.27;6.68;;;;;;;14.72;63.89;101188.50;5006433;28;20037;-70
2022/05/31 07:51:53;;;;;;;12.93;6.47;;;;;;;14.92;63.80;101190.44;5010221;28;20413;-69
2022/05/31 07:54:44;;;;;;;9.50;6.20;;;;;;;15.02;62.94;101180.44;4975038;28;20060;-71
2022/05/31 08:00:49;;;;;;;7.25;5.55;;;;;;;15.32;60.30;101182.38;4990360;28;20045;-70
2022/05/31 08:03:14;;;;;;;10.13;5.47;;;;;;;15.55;60.40;101177.63;4989521;28;20539;-68
2022/05/31 08:05:40;;;;;;;6.32;5.30;;;;;;;15.77;57.71;101181.25;4988333;28;20038;-71
2022/05/31 08:08:06;;;;;;;7.85;5.65;;;;;;;16.22;57.70;101172.63;4991973;28;20037;-71
2022/05/31 08:10:32;;;;;;;9.45;5.18;;;;;;;16.73;56.37;101175.22;5009994;28;20045;-70
2022/05/31 08:12:57;;;;;;;9.02;4.68;;;;;;;17.15;51.81;101166.69;5007833;28;20033;-69
2022/05/31 08:15:23;;;;;;;7.50;4.97;;;;;;;17.71;54.03;101168.59;4999888;28;20192;-71
2022/05/31 08:17:48;;;;;;;6.57;4.75;;;;;;;18.33;53.77;101163.47;5009963;28;20045;-69
2022/05/31 08:20:17;;;;;;;6.47;5.45;;;;;;;18.86;51.98;101159.94;5010002;28;20504;-69
2022/05/31 08:22:43;;;;;;;8.48;5.18;;;;;;;19.18;49.08;101155.75;5010220;28;20504;-70
2022/05/31 08:25:10;;;;;;;7.60;5.05;;;;;;;19.65;50.74;101150.78;5008259;28;20141;-70
2022/05/31 08:27:36;;;;;;;8.98;5.53;;;;;;;20.24;50.23;101148.16;5009507;28;20544;-70
2022/05/31 08:30:03;;;;;;;8.30;5.63;;;;;;;20.78;48.42;101148.66;4998987;28;20049;-70
2022/05/31 08:32:30;;;;;;;6.70;5.72;;;;;;;21.29;45.94;101147.50;5009611;28;20069;-70
2022/05/31 08:34:55;;;;;;;7.30;5.40;;;;;;;21.29;45.65;101146.63;5003114;28;20064;-69
2022/05/31 08:37:21;;;;;;;8.23;5.25;;;;;;;21.50;43.92;101149.78;5009262;28;20813;-70
2022/05/31 08:39:46;;;;;;;8.05;4.55;;;;;;;21.44;42.33;101150.44;5009168;28;20061;-70
2022/05/31 08:42:16;;;;;;;6.55;4.68;;;;;;;21.53;44.76;101146.63;5005886;28;20398;-70
2022/05/31 08:45:09;;;;;;;5.65;4.28;;;;;;;21.30;45.11;101151.13;4996234;28;20134;-69
2022/05/31 08:47:52;;;;;;;8.63;5.38;;;;;;;20.87;44.01;101151.28;5008021;28;20754;-69
2022/05/31 08:56:56;;;;;;;7.95;4.65;;;;;;;20.88;44.30;101153.00;4979180;28;20176;-70
2022/05/31 08:56:59;;;;;;;7.57;5.45;;;;;;;20.63;44.60;101152.09;4981295;28;20045;-69
2022/05/31 08:59:57;;;;;;;8.52;5.25;;;;;;;20.86;48.53;101159.75;4994515;28;20054;-69
2022/05/31 09:02:47;;;;;;;8.77;6.38;;;;;;;21.36;45.94;101156.00;5001302;28;20470;-70
2022/05/31 09:05:26;;;;;;;8.45;5.78;;;;;;;21.59;45.41;101145.06;4986219;28;20401;-70
2022/05/31 09:08:12;;;;;;;9.77;6.40;;;;;;;21.42;45.29;101140.59;5005292;28;20555;-70
2022/05/31 09:10:49;;;;;;;7.32;5.60;;;;;;;21.34;45.45;101139.56;4989471;28;20029;-70
2022/05/31 09:13:23;;;;;;;7.55;5.05;;;;;;;21.65;45.99;101148.00;5008179;28;20038;-70
2022/05/31 09:15:54;;;;;;;8.25;4.82;;;;;;;21.93;44.69;101147.59;4985839;28;20069;-70
2022/05/31 09:18:38;;;;;;;7.95;5.78;;;;;;;22.34;44.24;101148.31;5007448;28;20058;-69
2022/05/31 09:21:06;;;;;;;9.70;5.70;;;;;;;22.28;40.54;101148.16;5007962;28;20037;-69
2022/05/31 09:23:35;;;;;;;6.05;5.18;;;;;;;21.93;39.66;101142.03;5005720;28;20551;-70
2022/05/31 09:26:42;;;;;;;12.50;5.85;;;;;;;22.33;43.46;101146.56;5008480;28;20557;-70
2022/05/31 09:29:17;;;;;;;9.57;5.93;;;;;;;22.74;43.13;101146.34;4978145;28;20038;-70
2022/05/31 09:31:42;;;;;;;6.50;5.13;;;;;;;23.07;41.22;101144.22;4985632;28;20140;-70
2022/05/31 09:34:39;;;;;;;10.52;6.63;;;;;;;23.09;40.37;101142.16;4985355;28;20125;-70
2022/05/31 09:37:32;;;;;;;10.27;6.45;;;;;;;22.72;41.54;101140.13;5005181;28;20045;-70
2022/05/31 09:40:21;;;;;;;7.60;5.70;;;;;;;22.74;41.55;101143.56;5008384;28;20161;-69
2022/05/31 09:43:07;;;;;;;11.57;6.35;;;;;;;22.53;40.34;101141.47;4995371;28;20033;-70
2022/05/31 09:45:39;;;;;;;6.65;6.00;;;;;;;22.47;39.43;101141.31;4991433;28;20131;-70
2022/05/31 09:48:05;;;;;;;9.27;6.38;;;;;;;22.77;39.37;101143.22;5007582;28;20153;-69
2022/05/31 09:50:31;;;;;;;12.30;6.35;;;;;;;22.97;38.32;101142.75;4989272;28;20073;-69
2022/05/31 09:52:57;;;;;;;8.00;5.47;;;;;;;23.05;39.29;101137.16;5005482;28;20080;-69
2022/05/31 09:58:30;;;;;;;6.95;5.25;;;;;;;23.41;40.84;101137.38;5004876;28;20053;-70
2022/05/31 10:01:28;;;;;;;6.47;4.80;;;;;;;23.55;41.47;101139.31;4973228;28;20053;-69
2022/05/31 10:04:11;;;;;;;8.98;6.22;;;;;;;22.90;37.54;101131.56;4988799;28;20096;-71
2022/05/31 10:06:52;;;;;;;7.63;6.13;;;;;;;22.49;41.13;101131.78;5005841;28;20167;-70
2022/05/31 10:09:18;;;;;;;7.90;5.75;;;;;;;22.72;39.92;101134.59;5004114;28;20148;-70
2022/05/31 10:11:45;;;;;;;7.43;5.45;;;;;;;23.15;40.76;101129.44;5008168;28;20046;-69
2022/05/31 10:14:23;;;;;;;8.05;5.80;;;;;;;23.15;38.46;101135.00;5003076;28;20548;-70
2022/05/31 10:16:49;;;;;;;7.15;5.57;;;;;;;22.91;36.95;101134.13;4990602;28;20484;-70
2022/05/31 10:19:41;;;;;;;10.70;6.13;;;;;;;22.63;40.01;101131.00;4997054;28;20185;-69
2022/05/31 10:22:16;;;;;;;7.68;6.03;;;;;;;22.38;40.24;101133.06;5001012;28;20052;-70
2022/05/31 10:25:26;;;;;;;7.43;6.10;;;;;;;22.24;41.03;101133.78;5005045;28;20096;-70
2022/05/31 10:28:39;;;;;;;11.52;6.22;;;;;;;22.01;42.79;101125.41;4969940;28;20065;-70
2022/05/31 10:31:20;;;;;;;8.57;5.93;;;;;;;21.70;41.75;101122.53;4996709;28;20034;-70
2022/05/31 10:33:58;;;;;;;7.53;6.28;;;;;;;21.51;42.71;101131.25;5005886;28;20057;-68
2022/05/31 10:36:26;;;;;;;7.45;5.55;;;;;;;21.35;43.63;101121.91;5007881;28;20057;-70
2022/05/31 10:38:52;;;;;;;9.60;5.30;;;;;;;21.25;44.88;101128.63;5006398;28;20053;-70
2022/05/31 10:41:30;;;;;;;10.23;6.25;;;;;;;21.12;44.96;101127.28;4989872;28;20044;-70
2022/05/31 10:44:13;;;;;;;8.82;5.95;;;;;;;20.96;43.21;101123.63;5001128;28;20045;-71
2022/05/31 10:46:41;;;;;;;7.13;5.72;;;;;;;20.82;42.66;101114.09;4983903;28;20060;-70
2022/05/31 10:49:25;;;;;;;7.07;5.88;;;;;;;20.66;44.60;101119.59;5002345;28;20065;-70
2022/05/31 10:52:06;;;;;;;8.57;6.22;;;;;;;20.49;44.07;101119.59;5007534;28;20041;-69
2022/05/31 10:54:39;;;;;;;7.30;6.00;;;;;;;20.46;45.85;101121.78;5007491;28;20520;-70
2022/05/31 10:57:42;;;;;;;8.50;5.68;;;;;;;20.49;46.66;101113.19;5007508;28;20754;-71
2022/05/31 11:00:28;;;;;;;9.27;5.60;;;;;;;20.48;46.73;101112.34;4986385;28;20126;-70
2022/05/31 11:03:11;;;;;;;8.25;5.75;;;;;;;20.35;45.37;101122.97;5002828;28;20476;-71
2022/05/31 11:06:04;;;;;;;8.45;5.57;;;;;;;20.32;46.04;101110.34;5006802;28;20046;-71
2022/05/31 11:11:28;;;;;;;;;;;;;;;20.31;47.29;101118.81;5004848;28;20348;-71
2022/05/31 11:14:06;;;;;;;9.32;5.57;;;;;;;20.00;47.22;101127.66;5003440;28;20312;-70
2022/05/31 11:16:40;;;;;;;7.82;5.47;;;;;;;19.72;47.96;101132.50;5000647;28;20065;-70
2022/05/31 11:19:25;;;;;;;10.52;5.68;;;;;;;19.53;49.03;101127.19;4999117;28;20042;-69
2022/05/31 11:22:07;;;;;;;9.48;4.85;;;;;;;19.44;49.62;101131.78;4993546;28;20044;-71
2022/05/31 11:25:00;;;;;;;9.48;6.03;;;;;;;19.34;50.07;101129.13;4999521;28;20343;-70
2022/05/31 11:27:37;;;;;;;12.25;5.47;;;;;;;19.19;49.78;101136.25;5007483;28;20033;-69
2022/05/31 11:30:18;;;;;;;11.68;5.22;;;;;;;19.09;49.05;101133.59;4995509;28;20098;-70
2022/05/31 11:33:22;;;;;;;11.05;5.65;;;;;;;18.96;49.86;101137.78;5007919;28;20520;-70
2022/05/31 11:36:31;;;;;;;10.43;5.47;;;;;;;18.97;50.72;101142.28;4954449;28;20054;-71
2022/05/31 11:39:20;;;;;;;10.23;6.25;;;;;;;18.90;51.45;101136.53;4988852;28;20050;-70
2022/05/31 11:42:08;;;;;;;10.48;5.47;;;;;;;18.74;52.48;101137.22;5000911;28;20038;-68
2022/05/31 11:44:36;;;;;;;9.75;6.28;;;;;;;18.61;52.59;101136.75;4997965;28;20409;-71
2022/05/31 11:47:20;;;;;;;11.25;6.50;;;;;;;18.67;52.18;101140.75;5001309;28;20064;-70
2022/05/31 11:50:08;;;;;;;9.38;5.68;;;;;;;18.58;51.11;101135.16;5004394;28;20087;-70
2022/05/31 11:53:03;;;;;;;5.95;4.25;;;;;;;18.46;49.00;101135.53;4982431;28;20046;-71
2022/05/31 11:55:35;;;;;;;5.88;4.13;;;;;;;18.56;49.71;101139.97;5002530;28;20046;-71
2022/05/31 11:58:10;;;;;;;;;;;;;;;18.84;49.42;101131.66;5005385;28;20413;-70
2022/05/31 12:00:47;;;;;;;7.25;3.45;;;;;;;19.00;47.42;101140.06;4997399;28;20371;-70
2022/05/31 12:03:20;;;;;;;4.13;3.47;;;;;;;19.07;45.89;101140.28;5005813;28;20052;-71
2022/05/31 12:05:52;;;;;;;;;;;;;;;19.17;47.40;101134.72;5003408;28;20042;-71
2022/05/31 12:08:34;;;;;;;4.90;2.70;;;;;;;19.08;46.00;101133.78;5005557;28;20011;-71
2022/05/31 12:11:08;;;;;;;4.88;2.80;;;;;;;19.14;46.00;101135.88;5001805;28;20037;-71
2022/05/31 12:13:41;;;;;;;3.42;2.65;;;;;;;19.31;45.45;101135.00;5003613;28;20045;-71
2022/05/31 12:16:07;;;;;;;5.53;3.30;;;;;;;19.37;42.54;101137.09;4999860;28;20038;-70
2022/05/31 12:18:51;;;;;;;4.18;2.58;;;;;;;19.69;46.06;101143.03;5004847;28;20022;-71
2022/05/31 12:21:23;;;;;;;5.47;3.05;;;;;;;20.17;46.14;101136.88;5004518;28;20029;-70
2022/05/31 12:24:10;;;;;;;4.05;2.65;;;;;;;20.49;43.70;101127.88;4998318;28;20040;-70